Time;durP1;ratioP1;P1;durP2;ratioP2;P2;SDS_P1;SDS_P2;PMS_P1;PMS_P2;Temp;Humidity;BMP_temperature;BMP_pressure;BME280_temperature;BME280_humidity;BME280_pressure;Samples;Min_cycle;Max_cycle;Signal;HPM_P1;HPM_P2
2023/08/14 00:01:24;;;;;;;10.20;1.80;;;;;;;15.79;100.00;100028.39;108934;1253;68008;-51
2023/08/14 00:03:52;;;;;;;9.00;1.30;;;;;;;15.80;100.00;100027.65;108911;1251;71428;-50
2023/08/14 00:06:19;;;;;;;6.60;1.70;;;;;;;15.80;100.00;100024.91;106623;1253;60585;-50
2023/08/14 00:08:46;;;;;;;6.50;1.70;;;;;;;15.81;100.00;100027.57;104343;1253;60559;-48
2023/08/14 00:11:14;;;;;;;11.50;2.10;;;;;;;15.81;100.00;100026.45;104392;1255;74641;-50
2023/08/14 00:13:54;;;;;;;6.10;1.60;;;;;;;15.80;100.00;100032.14;104377;1253;65499;-51
2023/08/14 00:16:23;;;;;;;11.10;1.40;;;;;;;15.76;100.00;100030.58;105223;1253;72419;-50
2023/08/14 00:18:51;;;;;;;2.20;0.80;;;;;;;15.74;100.00;100035.77;105057;1254;61705;-50
2023/08/14 00:21:18;;;;;;;2.40;0.80;;;;;;;15.73;100.00;100033.19;104528;1253;60630;-51
2023/08/14 00:23:45;;;;;;;2.20;0.90;;;;;;;15.71;100.00;100031.63;104386;1258;71695;-51
2023/08/14 00:26:13;;;;;;;1.40;0.80;;;;;;;15.71;100.00;100031.84;104464;1253;66297;-49
2023/08/14 00:28:40;;;;;;;1.10;0.70;;;;;;;15.71;100.00;100033.30;104339;1252;72401;-51
2023/08/14 00:31:08;;;;;;;0.80;0.70;;;;;;;15.72;100.00;100032.72;104394;1257;61708;-49
2023/08/14 00:33:35;;;;;;;1.80;0.80;;;;;;;15.71;100.00;100032.20;104403;1251;60449;-49
2023/08/14 00:36:05;;;;;;;2.50;0.80;;;;;;;15.69;100.00;100030.67;104460;1255;72865;-46
2023/08/14 00:38:32;;;;;;;2.60;1.10;;;;;;;15.66;100.00;100029.64;104550;1251;66419;-50
2023/08/14 00:41:02;;;;;;;1.30;0.90;;;;;;;15.61;100.00;100033.56;104378;1252;72451;-51
2023/08/14 00:43:29;;;;;;;1.00;0.90;;;;;;;15.57;100.00;100030.28;107775;1253;61725;-50
2023/08/14 00:45:57;;;;;;;2.00;0.80;;;;;;;15.52;100.00;100030.15;104384;1253;61853;-50
2023/08/14 00:48:25;;;;;;;2.30;0.80;;;;;;;15.49;100.00;100031.45;108800;1254;73866;-51
2023/08/14 00:50:55;;;;;;;0.70;0.70;;;;;;;15.44;100.00;100030.11;106448;1253;66270;-49
2023/08/14 00:53:24;;;;;;;1.10;0.70;;;;;;;15.41;100.00;100030.85;104474;1256;71386;-50
2023/08/14 00:55:52;;;;;;;2.20;0.70;;;;;;;15.40;100.00;100034.20;104374;1256;60435;-48
2023/08/14 00:58:19;;;;;;;2.10;0.70;;;;;;;15.37;100.00;100031.15;104482;1253;60469;-47
2023/08/14 01:00:47;;;;;;;3.30;0.70;;;;;;;15.35;100.00;100031.64;104583;1253;74883;-49
2023/08/14 01:03:14;;;;;;;3.70;0.70;;;;;;;15.36;100.00;100030.85;104348;1253;66776;-50
2023/08/14 01:05:41;;;;;;;1.70;0.70;;;;;;;15.37;100.00;100034.75;104499;1253;72732;-50
2023/08/14 01:08:09;;;;;;;1.70;0.70;;;;;;;15.38;100.00;100031.41;104360;1253;60649;-48
2023/08/14 01:11:13;;;;;;;1.20;0.70;;;;;;;15.36;100.00;100033.50;104476;1253;61049;-50
2023/08/14 01:13:54;;;;;;;1.10;0.70;;;;;;;15.28;100.00;100032.27;104464;1257;76083;-50
2023/08/14 01:16:27;;;;;;;2.60;0.80;;;;;;;15.23;100.00;100031.87;104465;1253;66755;-50
2023/08/14 01:18:55;;;;;;;3.10;0.90;;;;;;;15.20;100.00;100032.58;108800;1254;72584;-50
2023/08/14 01:21:34;;;;;;;3.50;1.00;;;;;;;15.14;100.00;100035.45;107920;1256;60502;-50
2023/08/14 01:24:05;;;;;;;2.80;0.90;;;;;;;15.09;100.00;100033.27;104538;1254;62086;-50
2023/08/14 01:26:32;;;;;;;0.70;0.70;;;;;;;15.04;100.00;100037.38;104396;1253;73839;-50
2023/08/14 01:29:00;;;;;;;2.80;0.80;;;;;;;15.02;100.00;100034.98;104527;1253;67185;-50
2023/08/14 01:31:30;;;;;;;1.90;0.80;;;;;;;15.02;100.00;100033.88;108713;1252;73539;-51
2023/08/14 01:33:58;;;;;;;1.20;0.80;;;;;;;15.03;100.00;100040.48;108728;1259;60372;-50
2023/08/14 01:36:40;;;;;;;0.70;0.70;;;;;;;15.04;100.00;100036.66;104518;1253;61841;-50
2023/08/14 01:39:12;;;;;;;2.00;0.60;;;;;;;15.06;100.00;100036.67;104475;1254;73838;-51
2023/08/14 01:41:45;;;;;;;2.10;0.80;;;;;;;15.09;100.00;100036.30;104229;1253;68053;-51
2023/08/14 01:44:14;;;;;;;0.90;0.80;;;;;;;15.12;100.00;100033.61;104427;1257;75040;-48
2023/08/14 01:46:42;;;;;;;0.90;0.70;;;;;;;15.14;100.00;100037.11;104439;1253;60461;-49
2023/08/14 01:49:11;;;;;;;4.90;0.80;;;;;;;15.15;100.00;100039.91;105196;1255;60549;-48
2023/08/14 01:51:39;;;;;;;1.60;0.90;;;;;;;15.16;100.00;100037.17;104932;1256;74716;-48
2023/08/14 01:54:06;;;;;;;2.90;1.00;;;;;;;15.14;100.00;100042.48;104793;1254;65746;-50
2023/08/14 01:56:33;;;;;;;0.80;0.80;;;;;;;15.13;100.00;100041.64;104830;1254;73366;-48
2023/08/14 01:59:01;;;;;;;1.60;0.70;;;;;;;15.11;100.00;100046.50;104933;1253;61751;-49
2023/08/14 02:01:28;;;;;;;0.90;0.80;;;;;;;15.07;100.00;100045.81;104963;1254;61019;-52
2023/08/14 02:03:55;;;;;;;1.50;1.00;;;;;;;15.04;100.00;100043.16;104845;1254;72489;-52
2023/08/14 02:06:25;;;;;;;1.00;0.70;;;;;;;15.00;100.00;100044.27;104961;1254;65799;-51
2023/08/14 02:08:52;;;;;;;1.10;1.00;;;;;;;14.98;100.00;100045.13;104773;1257;72647;-51
2023/08/14 02:11:19;;;;;;;2.20;1.30;;;;;;;14.96;100.00;100045.08;104739;1257;61693;-51
2023/08/14 02:13:47;;;;;;;1.10;0.80;;;;;;;14.93;100.00;100050.90;104985;1254;60556;-50
2023/08/14 02:16:14;;;;;;;1.00;0.90;;;;;;;14.90;100.00;100049.45;104916;1253;73829;-50
2023/08/14 02:18:41;;;;;;;1.50;0.80;;;;;;;14.86;100.00;100054.92;104657;1253;67257;-50
2023/08/14 02:21:09;;;;;;;0.90;0.70;;;;;;;14.84;100.00;100048.75;104314;1255;70081;-49
2023/08/14 02:23:36;;;;;;;0.90;0.80;;;;;;;14.83;100.00;100052.58;104557;1256;60884;-50
2023/08/14 02:26:03;;;;;;;0.80;0.70;;;;;;;14.82;100.00;100057.34;104315;1253;60502;-52
2023/08/14 02:28:31;;;;;;;1.20;0.80;;;;;;;14.81;100.00;100056.32;104448;1253;75821;-52
2023/08/14 02:31:01;;;;;;;4.90;1.00;;;;;;;14.80;100.00;100057.08;104403;1253;65514;-51
2023/08/14 02:33:28;;;;;;;1.10;1.00;;;;;;;14.79;100.00;100055.17;104380;1253;73042;-50
2023/08/14 02:35:56;;;;;;;3.80;1.00;;;;;;;14.76;100.00;100060.77;104360;1253;60549;-50
2023/08/14 02:38:23;;;;;;;1.30;0.80;;;;;;;14.71;100.00;100060.40;104540;1253;60902;-50
2023/08/14 02:40:51;;;;;;;2.10;0.70;;;;;;;14.65;100.00;100068.67;104500;1253;73782;-51
2023/08/14 02:43:18;;;;;;;1.70;0.80;;;;;;;14.59;100.00;100068.31;104331;1257;67052;-51
2023/08/14 02:45:45;;;;;;;1.00;0.70;;;;;;;14.56;100.00;100065.78;104469;1253;71253;-48
2023/08/14 02:48:12;;;;;;;2.50;0.70;;;;;;;14.57;100.00;100068.44;104540;1255;60537;-51
2023/08/14 02:50:40;;;;;;;3.60;0.70;;;;;;;14.55;100.00;100068.73;104937;1255;60354;-51
2023/08/14 02:53:07;;;;;;;2.20;0.80;;;;;;;14.54;100.00;100069.00;104957;1253;73146;-51
2023/08/14 02:55:34;;;;;;;3.20;0.70;;;;;;;14.55;100.00;100072.34;104896;1258;67157;-51
2023/08/14 02:58:02;;;;;;;1.50;0.70;;;;;;;14.54;100.00;100076.92;104925;1253;72394;-51
2023/08/14 03:00:29;;;;;;;3.90;0.70;;;;;;;14.54;100.00;100078.75;104830;1256;63628;-52
2023/08/14 03:02:57;;;;;;;1.20;0.60;;;;;;;14.56;100.00;100081.30;104907;1259;60897;-50
2023/08/14 03:05:24;;;;;;;1.70;0.90;;;;;;;14.59;100.00;100079.33;109047;1253;72674;-51
2023/08/14 03:07:52;;;;;;;2.30;0.80;;;;;;;14.63;100.00;100081.62;109117;1253;65762;-52
2023/08/14 03:10:19;;;;;;;2.80;0.90;;;;;;;14.67;100.00;100081.73;109154;1253;71098;-52
2023/08/14 03:12:46;;;;;;;2.70;0.80;;;;;;;14.72;100.00;100086.46;109174;1253;59713;-52
2023/08/14 03:15:13;;;;;;;2.20;0.90;;;;;;;14.75;100.00;100085.04;107132;1255;60974;-52
2023/08/14 03:17:41;;;;;;;1.60;0.90;;;;;;;14.76;100.00;100087.67;104943;1253;73814;-52
2023/08/14 03:20:09;;;;;;;2.50;0.80;;;;;;;14.78;100.00;100086.53;104979;1256;65634;-50
2023/08/14 03:22:37;;;;;;;0.90;0.70;;;;;;;14.79;100.00;100088.80;104331;1257;72928;-49
2023/08/14 03:25:05;;;;;;;0.80;0.70;;;;;;;14.81;100.00;100087.55;104285;1253;62126;-51
2023/08/14 03:27:32;;;;;;;1.40;0.70;;;;;;;14.83;100.00;100086.01;104632;1254;60651;-51
2023/08/14 03:30:00;;;;;;;1.40;0.70;;;;;;;14.86;100.00;100088.88;104541;1259;76330;-52
2023/08/14 03:32:27;;;;;;;1.00;0.80;;;;;;;14.90;100.00;100089.71;105101;1253;68227;-51
2023/08/14 03:34:55;;;;;;;5.90;0.80;;;;;;;14.94;100.00;100087.30;104858;1254;71516;-52
2023/08/14 03:37:23;;;;;;;1.00;0.70;;;;;;;14.97;100.00;100089.10;104844;1253;60938;-51
2023/08/14 03:39:54;;;;;;;2.60;0.70;;;;;;;15.02;100.00;100089.00;104851;1253;60487;-50
2023/08/14 03:42:21;;;;;;;1.40;0.60;;;;;;;15.08;100.00;100090.81;105582;1253;73915;-51
2023/08/14 03:44:48;;;;;;;2.10;0.80;;;;;;;15.13;100.00;100089.02;104979;1253;66015;-50
2023/08/14 03:47:18;;;;;;;0.90;0.70;;;;;;;15.19;100.00;100090.46;104905;1254;71664;-51
2023/08/14 03:49:45;;;;;;;1.70;0.80;;;;;;;15.25;100.00;100088.45;104854;1254;62150;-51
2023/08/14 03:52:12;;;;;;;1.20;0.70;;;;;;;15.32;100.00;100085.34;104935;1259;60372;-52
2023/08/14 03:54:40;;;;;;;1.80;0.80;;;;;;;15.38;100.00;100089.83;105083;1253;73805;-51
2023/08/14 03:57:08;;;;;;;1.20;0.80;;;;;;;15.44;100.00;100092.67;105196;1256;65681;-51
2023/08/14 03:59:36;;;;;;;1.10;0.70;;;;;;;15.51;100.00;100092.41;104912;1253;71179;-53
2023/08/14 04:02:03;;;;;;;0.90;0.70;;;;;;;15.59;100.00;100093.25;104739;1253;61656;-52
2023/08/14 04:04:31;;;;;;;1.70;0.70;;;;;;;15.66;100.00;100093.68;104797;1253;59334;-50
2023/08/14 04:06:59;;;;;;;4.40;0.90;;;;;;;15.74;100.00;100094.06;105078;1258;73886;-51
2023/08/14 04:09:27;;;;;;;2.10;0.80;;;;;;;15.82;100.00;100093.02;104800;1253;67210;-52
2023/08/14 04:11:55;;;;;;;0.80;0.70;;;;;;;15.89;100.00;100093.64;105528;1254;71143;-52
2023/08/14 04:14:23;;;;;;;2.90;0.70;;;;;;;15.97;100.00;100095.81;104715;1253;60643;-51
2023/08/14 04:16:50;;;;;;;2.50;0.80;;;;;;;16.08;100.00;100100.33;105587;1259;60572;-51
2023/08/14 04:19:19;;;;;;;1.10;0.70;;;;;;;16.23;100.00;100097.89;104915;1256;72641;-53
2023/08/14 04:21:46;;;;;;;0.80;0.70;;;;;;;16.44;100.00;100102.33;104832;1256;65496;-52
2023/08/14 04:24:13;;;;;;;3.00;0.80;;;;;;;16.59;100.00;100102.02;105022;1259;72756;-52
2023/08/14 04:26:41;;;;;;;1.10;0.60;;;;;;;16.73;100.00;100104.16;104646;1253;63088;-53
2023/08/14 04:29:09;;;;;;;1.10;0.70;;;;;;;16.89;100.00;100110.17;108078;1253;60829;-54
2023/08/14 04:31:37;;;;;;;0.90;0.60;;;;;;;17.06;100.00;100109.48;104999;1254;73813;-53
2023/08/14 04:34:04;;;;;;;1.40;0.90;;;;;;;17.32;100.00;100111.70;104633;1257;65503;-54
2023/08/14 04:36:33;;;;;;;1.90;0.90;;;;;;;17.66;100.00;100117.27;108067;1253;72407;-51
2023/08/14 04:39:01;;;;;;;2.10;0.90;;;;;;;17.96;100.00;100119.44;105248;1254;61052;-52
2023/08/14 04:41:29;;;;;;;2.60;0.70;;;;;;;18.18;100.00;100120.55;105014;1258;60432;-51
2023/08/14 04:43:56;;;;;;;1.90;0.90;;;;;;;18.46;100.00;100117.73;108813;1253;74567;-51
2023/08/14 04:46:37;;;;;;;0.70;0.70;;;;;;;18.68;100.00;100120.25;108423;1255;65487;-51
2023/08/14 04:49:24;;;;;;;1.60;0.80;;;;;;;18.81;100.00;100122.67;104977;1253;71928;-51
2023/08/14 04:51:52;;;;;;;2.30;0.70;;;;;;;18.88;100.00;100128.34;104719;1256;60547;-51
2023/08/14 04:54:19;;;;;;;1.10;0.90;;;;;;;18.94;100.00;100129.66;104899;1258;60543;-52
2023/08/14 04:56:46;;;;;;;1.10;0.70;;;;;;;19.01;100.00;100131.35;104460;1258;74295;-53
2023/08/14 04:59:15;;;;;;;0.80;0.70;;;;;;;19.07;100.00;100133.02;105020;1253;66500;-52
2023/08/14 05:01:43;;;;;;;4.30;1.10;;;;;;;19.14;100.00;100140.45;104948;1253;72444;-52
2023/08/14 05:04:12;;;;;;;0.90;0.70;;;;;;;19.22;100.00;100140.03;105829;1253;60530;-52
2023/08/14 05:06:39;;;;;;;2.60;0.70;;;;;;;19.31;100.00;100144.27;105796;1251;60447;-53
2023/08/14 05:09:06;;;;;;;0.70;0.60;;;;;;;19.39;100.00;100142.35;104972;1253;73826;-53
2023/08/14 05:11:57;;;;;;;2.50;0.60;;;;;;;19.46;100.00;100140.14;105568;1255;67231;-53
2023/08/14 05:14:25;;;;;;;1.70;0.70;;;;;;;19.54;100.00;100143.20;105675;1254;71486;-53
2023/08/14 05:16:53;;;;;;;1.40;0.60;;;;;;;19.61;100.00;100142.96;104934;1254;60540;-53
2023/08/14 05:19:20;;;;;;;3.10;0.70;;;;;;;19.69;100.00;100145.28;104968;1257;60520;-52
2023/08/14 05:21:48;;;;;;;1.10;0.60;;;;;;;19.77;100.00;100148.14;104909;1258;73856;-53
2023/08/14 05:24:15;;;;;;;1.80;0.60;;;;;;;19.84;100.00;100150.48;105596;1253;67511;-53
2023/08/14 05:26:43;;;;;;;1.60;0.60;;;;;;;19.91;100.00;100151.14;104962;1253;71404;-52
2023/08/14 05:29:10;;;;;;;3.50;0.60;;;;;;;19.99;100.00;100151.95;109046;1253;60104;-53
2023/08/14 05:31:38;;;;;;;2.20;0.40;;;;;;;20.08;100.00;100150.89;109146;1253;60093;-53
2023/08/14 05:34:05;;;;;;;1.30;0.50;;;;;;;20.18;100.00;100156.26;108874;1251;72576;-53
2023/08/14 05:36:33;;;;;;;0.90;0.60;;;;;;;20.29;100.00;100160.39;109118;1251;66921;-53
2023/08/14 05:39:00;;;;;;;3.10;0.90;;;;;;;20.41;100.00;100161.63;109062;1253;73093;-54
2023/08/14 05:41:27;;;;;;;2.70;0.60;;;;;;;20.52;100.00;100168.92;108994;1253;60017;-52
2023/08/14 05:43:55;;;;;;;0.70;0.50;;;;;;;20.64;100.00;100172.28;108915;1256;60057;-54
2023/08/14 05:46:24;;;;;;;1.30;0.50;;;;;;;20.76;100.00;100168.20;109091;1253;72638;-51
2023/08/14 05:48:51;;;;;;;0.80;0.70;;;;;;;20.87;100.00;100171.80;109018;1251;67373;-51
2023/08/14 05:51:19;;;;;;;0.70;0.50;;;;;;;20.99;100.00;100175.94;109117;1251;73595;-52
2023/08/14 05:53:46;;;;;;;2.00;0.50;;;;;;;21.08;100.00;100181.88;108950;1253;58515;-51
2023/08/14 05:59:06;;;;;;;2.60;0.50;;;;;;;21.31;100.00;100211.15;102066;1289;600312;-51
2023/08/14 06:01:34;;;;;;;1.60;0.30;;;;;;;21.41;100.00;100220.14;104274;1266;59273;-53
2023/08/14 06:04:02;;;;;;;1.90;0.50;;;;;;;21.52;100.00;100227.59;108240;1265;60192;-54
2023/08/14 06:06:29;;;;;;;1.50;0.50;;;;;;;21.63;100.00;100225.73;108365;1263;72238;-53
2023/08/14 06:08:56;;;;;;;1.90;0.50;;;;;;;21.72;100.00;100227.27;108255;1269;66045;-54
2023/08/14 06:11:27;;;;;;;1.70;0.40;;;;;;;21.82;100.00;100230.26;104911;1265;71422;-53
2023/08/14 06:13:54;;;;;;;0.60;0.40;;;;;;;21.93;100.00;100234.45;104245;1264;149272;-51
2023/08/14 06:16:22;;;;;;;1.00;0.40;;;;;;;22.03;100.00;100238.14;104193;1263;60017;-51
2023/08/14 06:18:49;;;;;;;1.20;0.40;;;;;;;22.12;100.00;100239.51;104260;1263;70942;-50
2023/08/14 06:21:16;;;;;;;0.50;0.40;;;;;;;22.21;100.00;100239.24;104021;1267;65504;-52
2023/08/14 06:23:45;;;;;;;1.10;0.50;;;;;;;22.30;100.00;100245.73;104148;1265;72017;-52
2023/08/14 06:26:13;;;;;;;1.00;0.50;;;;;;;22.39;100.00;100251.57;104092;1269;60059;-55
2023/08/14 06:28:40;;;;;;;2.20;0.50;;;;;;;22.46;100.00;100252.24;104074;1266;60499;-53
2023/08/14 06:31:08;;;;;;;2.10;0.50;;;;;;;22.53;100.00;100254.52;104224;1263;72043;-55
2023/08/14 06:33:36;;;;;;;0.40;0.40;;;;;;;22.60;100.00;100251.48;104403;1260;65715;-53
2023/08/14 06:36:05;;;;;;;0.70;0.40;;;;;;;22.67;100.00;100255.08;106433;1260;71343;-54
2023/08/14 06:38:33;;;;;;;2.30;0.50;;;;;;;22.74;100.00;100259.41;104426;1261;59775;-55
2023/08/14 06:41:01;;;;;;;1.10;0.50;;;;;;;22.81;100.00;100262.75;104531;1262;61185;-53
2023/08/14 06:43:28;;;;;;;2.10;0.40;;;;;;;22.89;100.00;100264.77;104797;1264;72975;-52
2023/08/14 06:45:56;;;;;;;1.00;0.30;;;;;;;22.95;100.00;100263.11;104362;1260;67440;-55
2023/08/14 06:48:23;;;;;;;3.50;0.50;;;;;;;23.02;100.00;100265.39;104583;1261;72656;-53
2023/08/14 06:50:52;;;;;;;1.60;0.60;;;;;;;23.09;100.00;100266.03;104516;1260;59814;-54
2023/08/14 06:53:19;;;;;;;0.60;0.40;;;;;;;23.15;100.00;100273.30;104699;1260;59747;-53
2023/08/14 06:55:47;;;;;;;0.40;0.40;;;;;;;23.23;100.00;100274.93;104513;1265;73000;-53
2023/08/14 06:58:14;;;;;;;1.00;0.40;;;;;;;23.31;100.00;100276.97;104342;1266;65650;-53
2023/08/14 07:00:42;;;;;;;3.50;0.60;;;;;;;23.39;100.00;100282.83;104376;1263;71410;-52
2023/08/14 07:03:09;;;;;;;0.90;0.40;;;;;;;23.49;100.00;100286.67;104309;1263;60530;-53
2023/08/14 07:05:36;;;;;;;0.50;0.40;;;;;;;23.56;100.00;100290.77;104806;1265;59927;-52
2023/08/14 07:08:04;;;;;;;0.80;0.50;;;;;;;23.62;100.00;100292.98;104341;1265;74162;-52
2023/08/14 07:10:31;;;;;;;1.40;0.50;;;;;;;23.68;100.00;100298.09;104548;1267;68387;-52
2023/08/14 07:12:59;;;;;;;1.80;0.40;;;;;;;23.72;100.00;100300.96;104150;1262;72755;-53
2023/08/14 07:15:26;;;;;;;0.90;0.40;;;;;;;23.77;100.00;100303.23;104176;1261;62303;-53
2023/08/14 07:17:54;;;;;;;1.50;0.50;;;;;;;23.84;100.00;100306.97;104321;1261;60029;-52
2023/08/14 07:20:21;;;;;;;1.50;0.40;;;;;;;23.91;100.00;100312.38;104505;1264;71792;-53
2023/08/14 07:22:54;;;;;;;3.20;0.40;;;;;;;23.96;100.00;100313.89;104379;1269;65604;-53
2023/08/14 07:25:21;;;;;;;2.20;0.50;;;;;;;24.01;100.00;100317.05;104268;1267;73009;-53
2023/08/14 07:27:48;;;;;;;0.40;0.40;;;;;;;24.06;100.00;100315.47;104019;1267;59654;-54
2023/08/14 07:30:16;;;;;;;1.20;0.50;;;;;;;24.13;100.00;100317.19;104267;1264;60662;-53
2023/08/14 07:32:43;;;;;;;2.40;0.50;;;;;;;24.20;100.00;100319.54;104308;1266;72687;-52
2023/08/14 07:35:12;;;;;;;3.00;0.40;;;;;;;24.25;100.00;100322.67;103829;1263;65646;-54
2023/08/14 07:37:39;;;;;;;1.50;0.40;;;;;;;24.32;100.00;100323.67;104133;1268;72779;-54
2023/08/14 07:40:08;;;;;;;0.50;0.40;;;;;;;24.38;100.00;100324.56;104448;1266;60019;-55
2023/08/14 07:42:35;;;;;;;0.40;0.40;;;;;;;24.45;100.00;100323.16;104713;1263;60459;-56
2023/08/14 07:45:03;;;;;;;0.70;0.40;;;;;;;24.52;100.00;100323.31;104314;1262;71847;-55
2023/08/14 07:47:30;;;;;;;3.20;0.40;;;;;;;24.60;100.00;100325.89;104122;1263;67144;-54
2023/08/14 07:49:58;;;;;;;1.00;0.50;;;;;;;24.67;100.00;100324.82;104215;1269;70849;-54
2023/08/14 07:52:27;;;;;;;2.80;0.50;;;;;;;24.73;100.00;100328.95;104140;1266;59820;-53
2023/08/14 07:54:56;;;;;;;3.00;0.40;;;;;;;24.80;100.00;100334.34;104586;1267;60468;-56
2023/08/14 07:57:27;;;;;;;1.30;0.50;;;;;;;24.87;100.00;100334.39;104101;1274;73593;-55
2023/08/14 07:59:55;;;;;;;0.60;0.40;;;;;;;24.93;100.00;100332.89;104580;1266;67312;-56
2023/08/14 08:02:22;;;;;;;0.60;0.40;;;;;;;24.99;100.00;100333.98;104630;1266;70942;-54
2023/08/14 08:04:50;;;;;;;1.40;0.40;;;;;;;25.04;100.00;100331.25;104633;1268;60566;-54
2023/08/14 08:07:17;;;;;;;0.90;0.40;;;;;;;25.09;100.00;100332.36;104634;1263;60252;-53
2023/08/14 08:09:51;;;;;;;;;;;;;;;25.16;100.00;100335.95;104660;1267;71566;-55
2023/08/14 08:12:20;;;;;;;0.50;0.40;;;;;;;25.21;100.00;100341.11;104592;1263;65529;-53
2023/08/14 08:14:47;;;;;;;1.60;0.40;;;;;;;25.26;100.00;100343.04;104769;1257;73070;-55
2023/08/14 08:17:16;;;;;;;0.50;0.40;;;;;;;25.32;100.00;100337.84;104835;1262;59998;-53
2023/08/14 08:19:45;;;;;;;1.20;0.30;;;;;;;25.38;100.00;100341.09;104867;1257;60047;-57
2023/08/14 08:22:13;;;;;;;3.20;0.50;;;;;;;25.43;100.00;100340.41;104793;1262;73106;-52
2023/08/14 08:24:41;;;;;;;2.90;0.50;;;;;;;25.46;100.00;100341.27;104786;1262;66932;-52
2023/08/14 08:27:08;;;;;;;0.70;0.50;;;;;;;25.53;100.00;100343.01;104488;1271;72641;-53
2023/08/14 08:29:36;;;;;;;0.80;0.60;;;;;;;25.60;100.00;100344.14;104447;1262;60062;-53
2023/08/14 08:32:04;;;;;;;3.10;0.50;;;;;;;25.67;100.00;100346.08;104870;1262;60078;-52
2023/08/14 08:34:31;;;;;;;1.00;0.40;;;;;;;25.71;100.00;100347.23;104606;1262;73123;-52
2023/08/14 08:36:58;;;;;;;2.50;0.40;;;;;;;25.76;100.00;100346.45;104555;1258;66879;-52
2023/08/14 08:39:25;;;;;;;2.50;0.40;;;;;;;25.81;100.00;100346.75;104700;1260;72730;-54
2023/08/14 08:41:53;;;;;;;7.20;0.50;;;;;;;25.90;100.00;100346.77;104771;1260;60159;-53
2023/08/14 08:44:28;;;;;;;0.70;0.50;;;;;;;25.98;100.00;100350.70;104576;1256;60373;-53
2023/08/14 08:46:58;;;;;;;0.40;0.40;;;;;;;26.06;100.00;100352.88;104816;1262;73773;-53
2023/08/14 08:49:25;;;;;;;0.60;0.40;;;;;;;26.14;100.00;100356.22;104506;1260;66710;-54
2023/08/14 08:51:55;;;;;;;0.50;0.40;;;;;;;26.22;100.00;100357.16;108657;1256;73437;-54
2023/08/14 08:54:22;;;;;;;1.30;0.40;;;;;;;26.30;100.00;100362.27;108773;1256;60056;-53
2023/08/14 08:56:50;;;;;;;4.50;0.30;;;;;;;26.38;100.00;100364.95;108557;1256;59967;-54
2023/08/14 08:59:17;;;;;;;0.80;0.30;;;;;;;26.47;100.00;100368.22;108705;1257;71921;-54
2023/08/14 09:01:49;;;;;;;0.40;0.40;;;;;;;26.56;100.00;100368.02;108907;1260;66726;-54
2023/08/14 09:04:16;;;;;;;3.30;0.40;;;;;;;26.65;100.00;100365.42;108857;1260;72622;-53
2023/08/14 09:06:44;;;;;;;1.70;0.50;;;;;;;26.74;100.00;100369.59;108644;1256;60073;-54
2023/08/14 09:09:12;;;;;;;1.40;0.40;;;;;;;26.83;100.00;100365.67;108859;1257;58933;-54
2023/08/14 09:11:39;;;;;;;0.80;0.60;;;;;;;26.91;100.00;100366.92;109315;1253;72006;-54
2023/08/14 09:14:07;;;;;;;2.40;0.40;;;;;;;26.97;100.00;100365.61;109315;1251;66839;-54
2023/08/14 09:16:34;;;;;;;2.90;0.40;;;;;;;27.04;100.00;100364.14;109272;1253;72782;-55
2023/08/14 09:19:01;;;;;;;1.50;0.60;;;;;;;27.10;100.00;100363.69;109267;1252;59171;-54
2023/08/14 09:21:29;;;;;;;10.80;0.80;;;;;;;27.16;100.00;100369.40;107878;1256;59960;-53
2023/08/14 09:23:57;;;;;;;1.20;0.40;;;;;;;27.21;100.00;100365.89;105426;1256;72824;-55
2023/08/14 09:26:24;;;;;;;0.40;0.30;;;;;;;27.25;100.00;100367.44;105652;1252;65538;-54
2023/08/14 09:28:52;;;;;;;0.40;0.40;;;;;;;27.26;100.00;100364.69;105211;1257;71496;-54
2023/08/14 09:31:19;;;;;;;0.60;0.40;;;;;;;27.28;100.00;100365.32;105012;1259;60159;-54
2023/08/14 09:33:47;;;;;;;1.90;0.40;;;;;;;27.26;100.00;100362.34;105236;1257;60093;-53
2023/08/14 09:36:14;;;;;;;0.80;0.30;;;;;;;27.24;100.00;100364.26;105295;1257;72945;-54
2023/08/14 09:38:41;;;;;;;0.70;0.30;;;;;;;27.25;100.00;100364.70;105416;1257;66370;-53
2023/08/14 09:41:10;;;;;;;1.60;0.40;;;;;;;27.28;100.00;100362.01;105298;1257;72471;-51
2023/08/14 09:43:37;;;;;;;0.60;0.60;;;;;;;27.33;100.00;100362.57;105333;1256;59743;-53
2023/08/14 09:46:05;;;;;;;0.60;0.40;;;;;;;27.38;100.00;100357.71;105220;1257;60980;-53
2023/08/14 09:48:40;;;;;;;1.20;0.50;;;;;;;27.44;100.00;100357.27;105293;1257;73488;-53
2023/08/14 09:51:12;;;;;;;0.50;0.40;;;;;;;27.47;100.00;100356.55;105580;1256;66771;-53
2023/08/14 09:53:47;;;;;;;1.90;0.30;;;;;;;27.49;100.00;100352.77;105608;1254;73049;-54
2023/08/14 09:56:18;;;;;;;0.90;0.30;;;;;;;27.48;100.00;100350.45;105173;1259;60636;-53
2023/08/14 09:58:47;;;;;;;1.40;0.40;;;;;;;27.47;100.00;100346.22;105531;1251;60092;-50
2023/08/14 10:01:18;;;;;;;0.60;0.40;;;;;;;27.49;100.00;100349.29;104991;1256;73105;-54
2023/08/14 10:03:46;;;;;;;1.10;0.40;;;;;;;27.54;100.00;100343.27;105322;1251;65958;-54
2023/08/14 10:06:13;;;;;;;0.60;0.40;;;;;;;27.57;100.00;100341.47;105139;1254;72591;-54
2023/08/14 10:08:43;;;;;;;1.70;0.40;;;;;;;27.60;100.00;100338.92;105030;1257;60478;-53
2023/08/14 10:11:12;;;;;;;3.40;0.80;;;;;;;27.65;100.00;100338.75;105354;1257;60567;-52
2023/08/14 10:13:48;;;;;;;8.10;0.50;;;;;;;27.70;100.00;100338.16;105690;1251;73033;-54
2023/08/14 10:16:23;;;;;;;2.90;0.50;;;;;;;27.75;100.00;100342.16;105135;1251;65695;-54
2023/08/14 10:18:53;;;;;;;0.70;0.50;;;;;;;27.80;100.00;100340.73;105341;1254;71428;-54
2023/08/14 10:21:28;;;;;;;0.80;0.40;;;;;;;27.84;100.00;100339.21;105081;1257;60558;-54
2023/08/14 10:23:55;;;;;;;0.30;0.30;;;;;;;27.89;100.00;100339.05;105584;1251;61572;-55
2023/08/14 10:26:22;;;;;;;1.00;0.40;;;;;;;27.92;100.00;100336.80;105168;1260;73849;-54
2023/08/14 10:28:54;;;;;;;3.10;0.40;;;;;;;27.94;100.00;100336.90;105252;1251;67270;-55
2023/08/14 10:31:21;;;;;;;0.80;0.50;;;;;;;27.98;100.00;100337.57;104936;1259;72644;-54
2023/08/14 10:33:48;;;;;;;0.80;0.40;;;;;;;28.02;100.00;100335.87;105322;1254;60603;-53
2023/08/14 10:36:19;;;;;;;1.10;0.40;;;;;;;28.06;100.00;100334.91;105169;1257;60593;-53
2023/08/14 10:38:48;;;;;;;1.20;0.40;;;;;;;28.09;100.00;100336.36;105656;1258;74377;-55
2023/08/14 10:41:22;;;;;;;3.40;0.50;;;;;;;28.11;100.00;100330.41;105838;1251;66764;-53
2023/08/14 10:43:52;;;;;;;13.50;0.70;;;;;;;28.13;100.00;100328.90;105293;1257;72237;-53
2023/08/14 10:46:20;;;;;;;2.70;0.40;;;;;;;28.16;100.00;100330.57;105044;1260;60557;-54
2023/08/14 10:48:48;;;;;;;0.90;0.40;;;;;;;28.21;100.00;100333.36;105779;1252;60644;-53
2023/08/14 10:51:19;;;;;;;2.10;0.40;;;;;;;28.26;100.00;100325.73;105424;1256;73840;-53
2023/08/14 10:53:47;;;;;;;1.20;0.40;;;;;;;28.30;100.00;100332.17;105452;1251;67736;-54
2023/08/14 10:56:15;;;;;;;0.60;0.40;;;;;;;28.33;100.00;100325.77;105469;1257;71436;-53
2023/08/14 10:58:47;;;;;;;0.50;0.40;;;;;;;28.36;100.00;100321.73;105045;1264;60609;-53
2023/08/14 11:01:15;;;;;;;1.30;0.40;;;;;;;28.38;100.00;100323.10;105634;1252;60908;-54
2023/08/14 11:03:56;;;;;;;1.20;0.40;;;;;;;28.41;100.00;100316.55;105359;1258;73771;-55
2023/08/14 11:06:28;;;;;;;1.80;0.50;;;;;;;28.43;100.00;100313.46;105166;1256;67190;-54
2023/08/14 11:09:01;;;;;;;1.00;0.50;;;;;;;28.44;100.00;100307.85;105486;1253;72572;-54
2023/08/14 11:11:29;;;;;;;0.80;0.50;;;;;;;28.45;100.00;100310.31;105620;1254;60557;-53
2023/08/14 11:13:56;;;;;;;0.80;0.40;;;;;;;28.47;100.00;100307.87;105222;1252;60577;-54
2023/08/14 11:16:24;;;;;;;1.50;0.40;;;;;;;28.50;100.00;100305.15;105106;1257;72645;-53
2023/08/14 11:18:52;;;;;;;0.80;0.40;;;;;;;28.51;100.00;100303.27;105199;1257;66918;-54